Time;durP1;ratioP1;P1;durP2;ratioP2;P2;SDS_P1;SDS_P2;PMS_P1;PMS_P2;Temp;Humidity;BMP_temperature;BMP_pressure;BME280_temperature;BME280_humidity;BME280_pressure;Samples;Min_cycle;Max_cycle;Signal;HPM_P1;HPM_P2
2022/06/24 00:01:33;;;;;;;3.08;2.88;;;21.10;99.90;;;;;;10451030;28;20253;-80
2022/06/24 00:06:46;;;;;;;3.30;3.05;;;21.10;99.90;;;;;;10451641;28;20300;-80
2022/06/24 00:12:09;;;;;;;3.53;3.20;;;21.10;99.90;;;;;;10451350;28;20219;-80
2022/06/24 00:17:14;;;;;;;3.53;3.25;;;21.10;99.90;;;;;;10451521;28;20300;-80
2022/06/24 00:22:17;;;;;;;3.33;3.13;;;21.10;99.90;;;;;;10449477;28;20608;-80
2022/06/24 00:27:22;;;;;;;3.10;2.90;;;21.10;99.90;;;;;;10451575;28;20246;-80
2022/06/24 00:32:33;;;;;;;3.25;2.95;;;21.10;99.90;;;;;;10450291;28;20253;-80
2022/06/24 00:37:39;;;;;;;3.08;2.88;;;21.10;99.90;;;;;;10420281;28;20223;-80
2022/06/24 00:42:44;;;;;;;3.58;3.28;;;21.10;99.90;;;;;;10450723;28;20690;-80
2022/06/24 00:47:48;;;;;;;3.60;3.30;;;21.10;99.90;;;;;;10450585;28;20250;-80
2022/06/24 00:52:59;;;;;;;5.32;3.28;;;21.00;99.90;;;;;;10449011;28;20288;-80
2022/06/24 00:58:02;;;;;;;3.50;3.25;;;21.00;99.90;;;;;;10450264;28;20231;-80
2022/06/24 01:03:05;;;;;;;3.33;3.13;;;21.00;99.90;;;;;;10448868;28;20276;-80
2022/06/24 01:08:13;;;;;;;3.30;3.10;;;21.00;99.90;;;;;;10449582;28;20304;-80
2022/06/24 01:13:16;;;;;;;3.40;3.10;;;21.00;99.90;;;;;;10449242;28;20238;-80
2022/06/24 01:18:19;;;;;;;3.15;2.95;;;21.00;99.90;;;;;;10448395;28;20269;-80
2022/06/24 01:23:25;;;;;;;3.50;3.30;;;20.90;99.90;;;;;;10450179;28;20264;-80
2022/06/24 01:28:27;;;;;;;3.95;3.65;;;20.90;99.90;;;;;;10447966;28;20300;-80
2022/06/24 01:33:30;;;;;;;3.70;3.40;;;20.90;99.90;;;;;;10455516;28;20256;-80
2022/06/24 01:38:32;;;;;;;3.97;3.47;;;20.90;99.90;;;;;;10455208;28;20246;-80
2022/06/24 01:43:35;;;;;;;3.30;3.00;;;20.90;99.90;;;;;;10457962;28;20296;-79
2022/06/24 01:48:41;;;;;;;3.30;3.05;;;20.90;99.90;;;;;;10456120;28;20652;-80
2022/06/24 01:53:43;;;;;;;4.03;3.72;;;20.80;99.90;;;;;;10454959;28;20269;-80
2022/06/24 01:58:46;;;;;;;3.67;3.38;;;20.80;99.90;;;;;;10457189;28;20628;-80
2022/06/24 02:03:49;;;;;;;3.05;2.85;;;20.80;99.90;;;;;;10457149;28;20600;-80
2022/06/24 02:08:52;;;;;;;3.80;3.50;;;20.80;99.90;;;;;;10456034;28;20642;-80
2022/06/24 02:13:56;;;;;;;3.13;2.88;;;20.70;99.90;;;;;;10454915;28;20310;-80
2022/06/24 02:19:00;;;;;;;3.53;3.22;;;20.80;99.90;;;;;;10455937;28;20296;-80
2022/06/24 02:24:04;;;;;;;3.33;3.00;;;20.80;99.90;;;;;;10455524;28;20242;-80
2022/06/24 02:29:06;;;;;;;3.53;3.25;;;20.80;99.90;;;;;;10454684;28;20251;-80
2022/06/24 02:34:09;;;;;;;3.30;3.00;;;20.80;99.90;;;;;;10453806;28;20303;-80
2022/06/24 02:39:11;;;;;;;3.65;3.00;;;20.70;99.90;;;;;;10453861;28;20681;-80
2022/06/24 02:44:14;;;;;;;4.25;3.92;;;20.80;99.90;;;;;;10453219;28;20618;-80
2022/06/24 02:49:16;;;;;;;3.38;3.05;;;20.80;99.90;;;;;;10452931;28;20800;-80
2022/06/24 02:54:19;;;;;;;3.50;3.30;;;20.70;99.90;;;;;;10454055;28;20226;-80
2022/06/24 02:59:22;;;;;;;3.95;3.65;;;20.80;99.90;;;;;;10452812;28;20230;-80
2022/06/24 03:04:24;;;;;;;4.22;3.65;;;20.80;99.90;;;;;;10454101;28;20292;-80
2022/06/24 03:09:27;;;;;;;3.60;3.30;;;20.80;99.90;;;;;;10451536;28;20722;-80
2022/06/24 03:14:29;;;;;;;3.72;3.42;;;20.80;99.90;;;;;;10453937;28;20191;-80
2022/06/24 03:19:32;;;;;;;3.47;3.28;;;20.80;99.90;;;;;;10452592;28;20296;-80
2022/06/24 03:24:35;;;;;;;4.68;3.47;;;20.80;99.90;;;;;;10451382;28;20239;-80
2022/06/24 03:29:37;;;;;;;3.20;3.00;;;20.80;99.90;;;;;;10453596;28;20655;-80
2022/06/24 03:34:40;;;;;;;3.67;3.38;;;20.80;99.90;;;;;;10450800;28;20234;-80
2022/06/24 03:39:43;;;;;;;4.00;3.70;;;20.80;99.90;;;;;;10451317;28;20199;-80
2022/06/24 03:44:46;;;;;;;4.00;3.70;;;20.80;99.90;;;;;;10451769;28;20340;-80
2022/06/24 03:49:50;;;;;;;4.05;3.75;;;20.80;99.90;;;;;;10449674;28;20261;-80
2022/06/24 03:54:53;;;;;;;4.15;3.72;;;20.80;99.90;;;;;;10449418;28;20276;-80
2022/06/24 03:59:55;;;;;;;4.15;3.75;;;20.90;99.90;;;;;;10467799;28;20253;-79
2022/06/24 04:04:58;;;;;;;4.15;3.85;;;20.90;99.90;;;;;;10451048;28;20230;-80
2022/06/24 04:10:00;;;;;;;4.28;3.50;;;20.90;99.90;;;;;;10450305;28;20254;-79
2022/06/24 04:15:19;;;;;;;3.20;2.90;;;20.90;99.90;;;;;;10434480;28;20620;-79
2022/06/24 04:20:21;;;;;;;3.70;3.50;;;20.90;99.90;;;;;;10452524;28;20663;-80
2022/06/24 04:25:24;;;;;;;4.20;3.90;;;21.00;99.90;;;;;;10445421;28;20247;-80
2022/06/24 04:30:27;;;;;;;3.85;3.55;;;21.10;99.90;;;;;;10451009;28;20222;-80
2022/06/24 04:35:29;;;;;;;3.63;3.33;;;21.20;99.90;;;;;;10449579;28;20234;-80
2022/06/24 04:40:32;;;;;;;3.55;3.25;;;21.50;99.90;;;;;;10449479;28;20243;-80
2022/06/24 04:45:35;;;;;;;7.82;6.43;;;21.40;99.90;;;;;;10447364;28;20713;-80
2022/06/24 04:50:38;;;;;;;4.53;3.72;;;21.10;99.90;;;;;;10448921;28;20258;-80
2022/06/24 04:55:47;;;;;;;7.10;6.47;;;21.20;99.90;;;;;;10424162;28;20295;-79
2022/06/24 05:00:52;;;;;;;4.22;3.90;;;21.10;99.90;;;;;;10415661;28;20282;-80
2022/06/24 05:05:55;;;;;;;3.67;3.38;;;21.10;99.90;;;;;;10429466;28;20703;-80
2022/06/24 05:10:57;;;;;;;4.07;3.78;;;21.00;99.90;;;;;;10431942;28;20293;-79
2022/06/24 05:16:03;;;;;;;5.97;4.88;;;21.00;99.90;;;;;;10429416;28;20664;-79
2022/06/24 05:21:25;;;;;;;5.30;4.38;;;21.00;99.90;;;;;;10419075;28;20234;-80
2022/06/24 05:26:28;;;;;;;3.80;3.50;;;21.10;99.90;;;;;;10417423;28;20349;-80
2022/06/24 05:31:31;;;;;;;4.40;4.00;;;21.10;99.90;;;;;;10428719;28;20230;-79
2022/06/24 05:36:34;;;;;;;4.75;4.35;;;21.20;99.90;;;;;;10424259;28;20284;-79
2022/06/24 05:41:39;;;;;;;4.00;3.70;;;21.20;99.90;;;;;;10446721;28;20247;-79
2022/06/24 05:46:42;;;;;;;4.28;3.97;;;21.30;99.90;;;;;;10447125;28;20646;-79
2022/06/24 05:51:44;;;;;;;5.55;4.95;;;21.30;99.90;;;;;;10448138;28;20255;-79
2022/06/24 05:56:47;;;;;;;4.93;4.45;;;21.30;99.90;;;;;;10445068;28;20242;-79
2022/06/24 06:01:49;;;;;;;4.32;3.92;;;21.20;99.90;;;;;;10446635;28;20677;-79
2022/06/24 06:06:52;;;;;;;4.57;4.07;;;21.30;99.90;;;;;;10432748;28;20321;-79
2022/06/24 06:11:56;;;;;;;14.30;6.10;;;21.30;99.90;;;;;;10407859;28;20695;-79
2022/06/24 06:16:58;;;;;;;4.35;3.95;;;21.40;99.90;;;;;;10431828;28;20231;-78
2022/06/24 06:22:02;;;;;;;5.80;5.15;;;21.50;99.90;;;;;;10445303;28;20227;-78
2022/06/24 06:27:05;;;;;;;5.82;5.32;;;21.60;99.90;;;;;;10455391;28;20699;-78
2022/06/24 06:32:07;;;;;;;6.95;6.13;;;21.70;99.90;;;;;;10447910;28;20239;-78
2022/06/24 06:37:11;;;;;;;9.43;5.90;;;21.70;99.90;;;;;;10453556;28;20611;-79
2022/06/24 06:42:13;;;;;;;5.57;5.07;;;21.80;99.90;;;;;;10455585;28;20280;-79
2022/06/24 06:47:19;;;;;;;5.85;5.35;;;21.90;99.90;;;;;;10453924;28;20748;-79
2022/06/24 06:52:22;;;;;;;7.10;6.40;;;22.00;99.90;;;;;;10452935;28;20313;-79
2022/06/24 06:57:25;;;;;;;11.98;6.72;;;22.20;99.90;;;;;;10452668;28;20296;-79
2022/06/24 07:02:27;;;;;;;8.40;6.13;;;22.30;99.90;;;;;;10452192;28;20288;-80
2022/06/24 07:07:30;;;;;;;8.32;5.85;;;22.40;99.90;;;;;;10444792;28;20258;-79
2022/06/24 07:12:33;;;;;;;10.25;6.47;;;22.50;99.90;;;;;;10449285;28;20226;-79
2022/06/24 07:17:36;;;;;;;7.38;5.60;;;22.50;99.90;;;;;;10452336;28;20292;-79
2022/06/24 07:22:40;;;;;;;10.25;6.10;;;22.60;99.90;;;;;;10452581;28;20246;-80
2022/06/24 07:27:42;;;;;;;8.13;6.95;;;22.70;99.90;;;;;;10444547;28;20297;-80
2022/06/24 07:32:47;;;;;;;7.95;6.13;;;22.80;99.90;;;;;;10452709;28;20227;-79
2022/06/24 07:37:49;;;;;;;9.55;6.28;;;22.80;99.90;;;;;;10451603;28;20277;-80
2022/06/24 07:42:52;;;;;;;12.20;5.18;;;22.90;99.90;;;;;;10452364;28;20234;-79
2022/06/24 07:47:54;;;;;;;8.50;5.47;;;23.10;99.90;;;;;;10453244;28;20246;-79
2022/06/24 07:52:57;;;;;;;7.53;5.18;;;23.10;99.90;;;;;;10448999;28;20287;-79
2022/06/24 07:58:00;;;;;;;6.05;5.18;;;23.10;99.90;;;;;;10450120;28;20235;-79
2022/06/24 08:03:02;;;;;;;5.97;4.60;;;23.20;99.90;;;;;;10441773;28;20232;-79
2022/06/24 08:08:05;;;;;;;6.53;5.90;;;23.00;99.90;;;;;;10443688;28;20250;-79
2022/06/24 08:13:08;;;;;;;10.10;5.28;;;22.90;99.90;;;;;;10449994;28;20230;-79
2022/06/24 08:18:10;;;;;;;5.82;5.03;;;23.10;99.90;;;;;;10450176;28;20794;-78
2022/06/24 08:23:13;;;;;;;5.20;4.70;;;23.20;99.90;;;;;;10450026;28;20280;-79
2022/06/24 08:28:15;;;;;;;5.93;5.43;;;23.10;99.90;;;;;;10462365;28;20629;-78
2022/06/24 08:33:25;;;;;;;5.22;4.63;;;22.90;99.90;;;;;;10449527;28;20270;-78
2022/06/24 08:38:27;;;;;;;5.00;4.53;;;23.00;99.90;;;;;;10449267;28;20296;-78
2022/06/24 08:43:32;;;;;;;6.82;4.47;;;22.90;99.90;;;;;;10449203;28;20234;-78
2022/06/24 08:48:37;;;;;;;5.25;4.75;;;22.80;99.90;;;;;;10449854;28;20265;-79
2022/06/24 08:53:40;;;;;;;7.95;5.05;;;23.00;99.90;;;;;;10449793;28;20199;-79
2022/06/24 08:58:42;;;;;;;8.50;4.53;;;23.00;99.90;;;;;;10447789;28;20234;-78
2022/06/24 09:03:48;;;;;;;5.72;4.32;;;23.10;99.90;;;;;;10445765;28;20242;-78
2022/06/24 09:08:59;;;;;;;6.32;5.32;;;23.10;99.90;;;;;;10442833;28;20226;-84
2022/06/24 09:14:01;;;;;;;8.48;4.80;;;22.80;99.90;;;;;;10446464;28;20615;-79
2022/06/24 09:19:06;;;;;;;7.05;3.70;;;23.90;99.30;;;;;;10448153;28;20281;-79
2022/06/24 09:24:10;;;;;;;5.63;4.43;;;24.50;97.90;;;;;;10447723;28;20238;-79
2022/06/24 09:29:15;;;;;;;5.72;3.92;;;24.70;98.10;;;;;;10446999;28;20308;-79
2022/06/24 09:34:18;;;;;;;5.40;4.28;;;24.90;97.60;;;;;;10448820;28;20630;-79
2022/06/24 09:39:22;;;;;;;5.40;4.40;;;25.00;97.80;;;;;;10449781;28;20361;-79
2022/06/24 09:44:44;;;;;;;4.65;4.20;;;25.10;97.40;;;;;;10432232;28;20235;-78
2022/06/24 09:49:56;;;;;;;4.25;3.30;;;25.20;97.40;;;;;;10448495;28;20261;-79
2022/06/24 09:55:01;;;;;;;5.93;3.50;;;25.20;97.10;;;;;;10437316;28;20684;-79
2022/06/24 10:05:28;;;;;;;5.75;4.93;;;25.10;97.60;;;;;;10454972;28;20210;-79
2022/06/24 10:10:32;;;;;;;8.00;3.22;;;25.10;97.60;;;;;;10452130;28;20291;-79
2022/06/24 10:15:35;;;;;;;4.88;4.30;;;25.10;95.60;;;;;;10452091;28;20283;-80
2022/06/24 10:20:42;;;;;;;5.18;3.78;;;25.00;97.60;;;;;;10414380;28;20220;-80
2022/06/24 10:25:48;;;;;;;5.65;4.07;;;25.00;97.20;;;;;;10444030;28;20231;-81
2022/06/24 10:30:55;;;;;;;4.38;3.42;;;24.90;93.90;;;;;;10431824;28;20223;-81
2022/06/24 10:36:05;;;;;;;3.83;3.53;;;25.00;94.30;;;;;;10434502;28;20633;-80
2022/06/24 10:41:11;;;;;;;3.88;3.53;;;25.10;96.80;;;;;;10453238;28;20230;-80
2022/06/24 10:46:15;;;;;;;4.03;3.63;;;25.10;94.40;;;;;;10450540;28;20364;-80
2022/06/24 10:51:20;;;;;;;3.47;3.17;;;25.10;97.00;;;;;;10445032;28;20761;-79
2022/06/24 10:56:41;;;;;;;3.90;3.60;;;25.10;93.70;;;;;;10449465;28;20234;-80
2022/06/24 11:01:49;;;;;;;5.53;3.65;;;25.20;96.20;;;;;;10446401;28;20234;-79
2022/06/24 11:07:11;;;;;;;4.40;3.50;;;25.00;97.00;;;;;;10450214;28;20219;-80
2022/06/24 11:12:29;;;;;;;3.65;3.30;;;24.90;97.10;;;;;;10452636;28;20230;-80
2022/06/24 11:33:05;;;;;;;4.22;3.05;;;24.90;93.70;;;;;;13015735;22;1735485;-95
2022/06/24 11:38:09;;;;;;;4.28;3.83;;;25.20;94.60;;;;;;13041070;22;20222;-95
2022/06/24 11:43:13;;;;;;;5.05;3.17;;;24.80;95.30;;;;;;13045514;22;20190;-95
2022/06/24 11:48:22;;;;;;;7.50;3.47;;;24.90;94.20;;;;;;13052304;22;20157;-95
2022/06/24 11:53:26;;;;;;;5.85;3.28;;;25.50;93.20;;;;;;13083534;22;20552;-96
2022/06/24 11:58:36;;;;;;;6.63;2.75;;;25.00;93.20;;;;;;13045014;22;20196;-95
2022/06/24 12:03:39;;;;;;;5.65;3.17;;;24.90;94.10;;;;;;13047468;22;20168;-95
2022/06/24 12:08:42;;;;;;;6.72;2.88;;;24.90;92.60;;;;;;13074355;22;20172;-95
2022/06/24 12:14:05;;;;;;;2.97;2.65;;;25.00;94.30;;;;;;13076772;22;20261;-95
2022/06/24 12:19:08;;;;;;;5.30;2.50;;;24.80;94.70;;;;;;13073275;22;20180;-94
2022/06/24 12:24:21;;;;;;;6.07;2.70;;;25.00;92.50;;;;;;13081755;22;20168;-96
2022/06/24 12:29:31;;;;;;;5.18;2.70;;;24.70;93.80;;;;;;13080053;22;20192;-95
2022/06/24 12:34:41;;;;;;;5.40;2.20;;;24.70;93.90;;;;;;13069751;22;20192;-93
2022/06/24 12:39:47;;;;;;;3.63;2.47;;;25.00;91.30;;;;;;13051077;22;20185;-92
2022/06/24 12:44:52;;;;;;;6.45;2.58;;;25.10;91.80;;;;;;13067204;22;20237;-95
2022/06/24 12:55:18;;;;;;;3.60;2.40;;;24.90;91.20;;;;;;13023488;22;20177;-93
2022/06/24 13:00:21;;;;;;;2.70;2.50;;;24.90;91.10;;;;;;13024055;22;20631;-93
2022/06/24 13:05:26;;;;;;;6.80;2.67;;;25.00;92.50;;;;;;13023664;22;20165;-94
2022/06/24 13:10:29;;;;;;;2.38;2.17;;;24.60;91.50;;;;;;13020019;22;20231;-93
2022/06/24 13:15:38;;;;;;;3.45;2.40;;;24.50;93.50;;;;;;13001541;22;20177;-96
2022/06/24 13:20:41;;;;;;;3.67;2.97;;;24.60;93.70;;;;;;13049656;22;20181;-93
2022/06/24 13:25:44;;;;;;;4.57;2.60;;;24.70;91.60;;;;;;13021804;22;20192;-93
2022/06/24 13:30:47;;;;;;;8.00;2.47;;;24.60;93.50;;;;;;12996466;22;20201;-93
2022/06/24 13:35:50;;;;;;;2.63;2.40;;;24.70;92.30;;;;;;13020486;22;20222;-93
2022/06/24 13:40:53;;;;;;;2.67;2.45;;;24.40;94.10;;;;;;13019787;22;20189;-92
2022/06/24 13:45:57;;;;;;;4.25;2.80;;;24.40;94.00;;;;;;12994410;22;20177;-92
2022/06/24 13:51:00;;;;;;;3.03;2.70;;;24.40;94.30;;;;;;13047287;22;20278;-93
2022/06/24 13:56:02;;;;;;;2.75;2.53;;;24.40;94.30;;;;;;13047830;22;20165;-92
2022/06/24 14:01:05;;;;;;;3.67;2.95;;;24.20;94.70;;;;;;13017182;22;20193;-92
2022/06/24 14:06:08;;;;;;;2.30;2.10;;;24.40;94.20;;;;;;12993005;22;20182;-92
2022/06/24 14:11:10;;;;;;;3.55;2.30;;;24.40;91.60;;;;;;12993014;22;20780;-93
2022/06/24 14:16:13;;;;;;;2.97;2.70;;;24.50;94.20;;;;;;13046696;22;20219;-92
2022/06/24 14:21:35;;;;;;;2.50;2.30;;;24.40;93.50;;;;;;13037666;22;20238;-94
2022/06/24 14:26:38;;;;;;;2.60;2.40;;;24.40;94.40;;;;;;13046136;22;20162;-92
2022/06/24 14:31:41;;;;;;;5.07;2.20;;;24.60;93.60;;;;;;13045592;22;20188;-92
2022/06/24 14:36:43;;;;;;;3.00;2.67;;;24.70;93.70;;;;;;13017346;22;20177;-92
2022/06/24 14:41:46;;;;;;;4.75;2.40;;;24.50;94.10;;;;;;12991062;22;20192;-92
2022/06/24 14:46:48;;;;;;;3.05;2.47;;;24.40;94.40;;;;;;13065355;22;20491;-94
2022/06/24 14:51:57;;;;;;;2.75;2.40;;;24.50;94.40;;;;;;13062655;22;20191;-93
2022/06/24 14:57:00;;;;;;;2.63;2.42;;;24.60;94.40;;;;;;13021999;22;20554;-93
2022/06/24 15:02:02;;;;;;;2.53;2.10;;;24.70;93.80;;;;;;12995078;22;20811;-94
2022/06/24 15:07:05;;;;;;;2.10;1.90;;;24.50;94.60;;;;;;13050107;22;20165;-93
2022/06/24 15:12:08;;;;;;;7.63;2.33;;;24.40;93.40;;;;;;13069490;22;20219;-95
2022/06/24 15:17:15;;;;;;;4.60;1.85;;;24.60;94.10;;;;;;13041498;22;20554;-93
2022/06/24 15:22:18;;;;;;;2.42;2.22;;;25.00;92.70;;;;;;13059743;22;20219;-94
2022/06/24 15:27:22;;;;;;;3.90;2.50;;;24.60;94.20;;;;;;13046832;22;20537;-94
2022/06/24 15:32:24;;;;;;;2.28;2.10;;;24.60;94.50;;;;;;13019322;22;20197;-93
2022/06/24 15:37:27;;;;;;;2.97;2.78;;;24.50;94.50;;;;;;13046665;22;20168;-92
2022/06/24 15:42:55;;;;;;;2.30;2.10;;;24.50;93.90;;;;;;12994796;22;20197;31
2022/06/24 15:47:57;;;;;;;11.07;2.83;;;25.00;90.30;;;;;;12544898;23;20182;-78
2022/06/24 15:53:02;;;;;;;2.78;1.77;;;26.50;92.20;;;;;;12546696;23;20183;-78
2022/06/24 15:58:05;;;;;;;9.80;2.42;;;;;;;;;;12855008;23;20218;-78
2022/06/24 16:03:07;;;;;;;5.72;2.33;;;27.60;91.00;;;;;;12887253;23;20263;-79
2022/06/24 16:08:10;;;;;;;9.68;2.55;;;27.90;90.40;;;;;;12915622;23;20179;-78
2022/06/24 16:13:13;;;;;;;12.57;2.55;;;28.10;91.40;;;;;;12918406;23;20197;-79
2022/06/24 16:18:15;;;;;;;2.13;1.92;;;28.20;91.30;;;;;;12917940;22;20232;-79
2022/06/24 16:23:19;;;;;;;2.53;1.80;;;28.20;90.60;;;;;;12915146;23;20232;-79
2022/06/24 16:33:44;;;;;;;6.68;2.10;;;28.40;90.90;;;;;;12936697;23;20575;-79
2022/06/24 16:38:50;;;;;;;3.00;2.13;;;28.40;90.50;;;;;;12916166;23;20174;-78
2022/06/24 16:43:58;;;;;;;1.90;1.80;;;28.40;90.70;;;;;;12936952;23;20192;-79
2022/06/24 16:49:00;;;;;;;2.47;1.80;;;28.30;86.80;;;;;;12916176;23;20224;-79
2022/06/24 16:54:03;;;;;;;1.98;1.60;;;28.30;91.00;;;;;;12915065;23;20847;-79
2022/06/24 16:59:05;;;;;;;3.60;2.00;;;28.30;91.40;;;;;;12914919;23;20555;-79
2022/06/24 17:04:08;;;;;;;5.50;2.10;;;28.20;91.50;;;;;;12889525;23;20197;-79
2022/06/24 17:09:11;;;;;;;2.85;1.85;;;28.10;91.70;;;;;;12917812;23;20209;-79
2022/06/24 17:14:13;;;;;;;2.67;1.63;;;28.10;91.80;;;;;;12915362;23;20521;-79
2022/06/24 17:19:16;;;;;;;1.90;1.77;;;28.00;91.90;;;;;;12917982;23;20182;-79
2022/06/24 17:24:18;;;;;;;2.75;1.60;;;27.90;92.00;;;;;;12917395;23;20509;-79
2022/06/24 17:29:21;;;;;;;2.03;1.83;;;27.80;92.30;;;;;;12918853;23;20555;-79
2022/06/24 17:34:23;;;;;;;2.25;1.70;;;27.70;92.60;;;;;;12918714;23;20513;-80
2022/06/24 17:39:26;;;;;;;2.95;1.75;;;27.50;92.80;;;;;;12909412;23;20524;-80
2022/06/24 17:44:29;;;;;;;2.03;1.30;;;27.40;93.10;;;;;;12913022;23;20217;-80
2022/06/24 17:49:31;;;;;;;3.15;1.40;;;27.30;93.40;;;;;;12911117;23;20201;-80
2022/06/24 17:54:34;;;;;;;2.38;2.03;;;27.10;93.70;;;;;;12909918;23;20273;-80
2022/06/24 17:59:36;;;;;;;2.63;1.70;;;27.00;94.00;;;;;;12912242;23;20178;-80
2022/06/24 18:04:39;;;;;;;2.67;1.85;;;26.80;94.30;;;;;;12907946;23;20243;-79
2022/06/24 18:09:41;;;;;;;1.45;1.35;;;26.70;94.60;;;;;;12910826;23;20529;-79
2022/06/24 18:14:46;;;;;;;1.35;1.25;;;26.60;94.90;;;;;;12907113;23;20523;-79
2022/06/24 18:19:52;;;;;;;5.50;1.75;;;26.50;95.10;;;;;;12926661;23;20498;-79
2022/06/24 18:24:55;;;;;;;2.55;1.60;;;26.40;95.40;;;;;;12910457;23;20170;-79
2022/06/24 18:29:57;;;;;;;2.03;1.65;;;26.30;95.60;;;;;;12928155;23;20170;-79
2022/06/24 18:35:00;;;;;;;1.38;1.27;;;26.20;95.80;;;;;;12910621;22;20178;-80
2022/06/24 18:40:04;;;;;;;1.70;1.60;;;26.10;96.00;;;;;;12910613;23;20190;-80
2022/06/24 18:45:07;;;;;;;1.73;1.63;;;26.00;96.10;;;;;;12928697;23;20167;-80
2022/06/24 18:50:10;;;;;;;1.70;1.60;;;25.90;96.40;;;;;;12913163;23;20171;-79
2022/06/24 18:55:13;;;;;;;1.55;1.35;;;25.80;96.50;;;;;;12914070;23;20250;-80
2022/06/24 19:00:15;;;;;;;2.00;1.60;;;25.80;96.70;;;;;;12913786;23;20190;-79
2022/06/24 19:05:18;;;;;;;1.63;1.52;;;25.80;96.90;;;;;;12910239;23;20565;-80
2022/06/24 19:10:21;;;;;;;1.60;1.50;;;25.70;97.00;;;;;;12911846;23;20509;-80
2022/06/24 19:15:23;;;;;;;1.90;1.60;;;25.60;97.10;;;;;;12911169;23;20228;-80
2022/06/24 19:20:26;;;;;;;1.75;1.60;;;25.60;97.30;;;;;;12886156;23;20217;-80
2022/06/24 19:25:30;;;;;;;2.20;1.58;;;25.50;97.40;;;;;;12929054;23;20167;-79
2022/06/24 19:30:33;;;;;;;2.17;1.98;;;25.50;97.50;;;;;;12911767;23;20236;-80
2022/06/24 19:35:35;;;;;;;1.45;1.27;;;25.40;97.60;;;;;;12910357;23;20162;-80
2022/06/24 19:40:39;;;;;;;2.92;1.60;;;25.40;97.70;;;;;;12932451;23;20190;-80
2022/06/24 19:45:42;;;;;;;1.45;1.35;;;25.30;97.90;;;;;;12917512;23;20166;-80
2022/06/24 19:50:45;;;;;;;1.48;1.38;;;25.30;98.00;;;;;;12914834;23;20653;-80
2022/06/24 19:55:49;;;;;;;1.50;1.40;;;25.20;98.10;;;;;;12914952;23;20232;-80
2022/06/24 20:00:51;;;;;;;2.95;1.48;;;25.20;98.20;;;;;;12915571;23;20213;-80
2022/06/24 20:05:56;;;;;;;2.45;1.40;;;25.10;98.30;;;;;;12933257;23;20220;-80
2022/06/24 20:11:02;;;;;;;1.40;1.23;;;25.10;98.60;;;;;;12913907;23;20521;-80
2022/06/24 20:16:04;;;;;;;1.88;1.67;;;25.00;98.40;;;;;;12913620;23;20182;-80
2022/06/24 20:21:07;;;;;;;1.85;1.60;;;25.00;98.60;;;;;;12915085;23;20202;-80
2022/06/24 20:26:10;;;;;;;1.65;1.40;;;24.90;98.60;;;;;;12931869;23;20193;-80
2022/06/24 20:31:13;;;;;;;1.73;1.63;;;24.90;98.80;;;;;;12916695;23;20220;-80
2022/06/24 20:36:15;;;;;;;1.73;1.63;;;24.90;98.80;;;;;;12915089;23;20178;-80
2022/06/24 20:41:18;;;;;;;1.90;1.60;;;24.80;98.80;;;;;;12933329;23;20265;-80
2022/06/24 20:46:22;;;;;;;1.40;1.23;;;24.80;98.90;;;;;;12912574;23;20174;-80
2022/06/24 20:51:24;;;;;;;2.45;1.73;;;24.70;99.00;;;;;;12918393;23;20171;-79
2022/06/24 20:56:27;;;;;;;1.65;1.55;;;24.70;99.10;;;;;;12918924;23;20268;-79
2022/06/24 21:01:30;;;;;;;2.03;1.55;;;24.70;99.20;;;;;;12919806;23;20190;-80
2022/06/24 21:06:32;;;;;;;1.95;1.40;;;24.60;99.30;;;;;;12917346;23;20563;-79
2022/06/24 21:11:35;;;;;;;1.63;1.40;;;24.60;99.40;;;;;;12918393;23;20166;-79
2022/06/24 21:16:38;;;;;;;7.43;3.35;;;24.60;99.40;;;;;;12935946;23;20166;-81
2022/06/24 21:21:40;;;;;;;5.72;2.45;;;24.00;95.50;;;;;;12916466;23;20190;-80
2022/06/24 21:26:44;;;;;;;2.40;1.77;;;23.10;99.90;;;;;;12918791;23;20170;-80
2022/06/24 21:31:50;;;;;;;2.88;1.60;;;23.80;99.90;;;;;;12918331;22;20205;-80
2022/06/24 21:36:52;;;;;;;4.22;2.08;;;24.10;99.90;;;;;;12918195;23;20171;-80
2022/06/24 21:41:55;;;;;;;2.45;2.03;;;24.10;99.90;;;;;;12915550;23;20669;-80
2022/06/24 21:46:58;;;;;;;4.63;2.05;;;24.20;99.90;;;;;;12912406;23;20174;-79
2022/06/24 21:52:00;;;;;;;3.78;1.77;;;24.20;99.90;;;;;;12915773;23;20194;-80
2022/06/24 21:57:04;;;;;;;2.42;1.83;;;24.20;99.90;;;;;;12917066;22;20264;-80
2022/06/24 22:02:07;;;;;;;2.42;1.80;;;24.10;99.90;;;;;;12918632;23;20248;-80
2022/06/24 22:07:09;;;;;;;2.72;2.03;;;24.10;99.90;;;;;;12918058;23;20549;-80
2022/06/24 22:12:12;;;;;;;2.83;2.05;;;24.10;99.90;;;;;;12918157;23;20483;-80
2022/06/24 22:17:15;;;;;;;5.53;1.90;;;24.10;99.90;;;;;;12918396;23;20170;-80
2022/06/24 22:22:18;;;;;;;2.72;2.25;;;24.10;99.90;;;;;;12916500;23;20566;-80
2022/06/24 22:27:20;;;;;;;2.00;1.90;;;24.10;99.90;;;;;;12918792;23;20493;-80
2022/06/24 22:32:23;;;;;;;1.83;1.73;;;24.10;99.90;;;;;;12919153;23;20504;-80
2022/06/24 22:37:25;;;;;;;5.00;2.35;;;24.10;99.90;;;;;;12918057;23;20252;-80
2022/06/24 22:42:28;;;;;;;2.35;2.15;;;24.00;99.90;;;;;;12915129;23;20198;-80
2022/06/24 22:47:32;;;;;;;2.00;1.80;;;24.00;99.90;;;;;;12918733;23;20167;-80
2022/06/24 22:52:35;;;;;;;2.38;2.17;;;24.00;99.90;;;;;;12916682;23;20206;-80
2022/06/24 22:57:41;;;;;;;2.35;2.08;;;24.00;99.90;;;;;;12922721;23;20190;-80
2022/06/24 23:02:43;;;;;;;3.20;1.48;;;24.00;99.90;;;;;;12918289;23;20240;-80
2022/06/24 23:07:47;;;;;;;3.40;1.90;;;24.00;99.90;;;;;;12918118;23;20285;-80
2022/06/24 23:12:49;;;;;;;2.70;2.50;;;24.00;99.90;;;;;;12916482;23;20491;-80
2022/06/24 23:17:52;;;;;;;2.50;2.30;;;23.90;99.90;;;;;;12917121;22;20224;-80
2022/06/24 23:22:54;;;;;;;2.60;1.90;;;23.90;99.90;;;;;;12917209;23;20213;-80
2022/06/24 23:27:58;;;;;;;2.17;1.77;;;23.90;99.90;;;;;;12918127;23;20166;-80
2022/06/24 23:33:00;;;;;;;2.10;1.90;;;23.80;99.90;;;;;;12917548;23;20170;-80
2022/06/24 23:38:03;;;;;;;3.33;2.25;;;23.80;99.90;;;;;;12915341;23;20205;-80
2022/06/24 23:43:05;;;;;;;2.15;1.95;;;23.80;99.90;;;;;;12915490;23;20194;-80
2022/06/24 23:53:29;;;;;;;4.20;2.40;;;23.80;99.90;;;;;;12916923;23;20201;-80
2022/06/24 23:58:32;;;;;;;1.95;1.85;;;23.70;99.90;;;;;;12914904;23;20244;-80
